メインページ
METAR-TAF:

METAR-TAF

空港 :

マデイラ空港

フンシャル, マデイラ諸島, ポルトガル

緯度: 32-41-52N, 経度: 016-46-28W, 海抜: 59m

現時点の気象観測

当レポートは32分前の05:30(UTC)に作成
南西の風 16kt
気温 18°C
湿度 88%
気圧 1005 hPa
視程10km以上
高度1500ftの千切れ雲あり
弱いにわか雨

METAR: LPMA 040530Z 23016KT 9999 -SHRA BKN015 18/16 Q1005

時間: 07:02 (06:02 UTC)

予報

当レポートは1時間2分前の05:00(UTC)に作成
予報は04日の 06時(UTC)から 05日の 06時(UTC)まで有効
南/南西の風 15kt
視程10km以上
高度1500ftの雲は散在している
04日の 06時(UTC)から 05日の 06時(UTC)まで一時的に
南西の風 20kt、最大30ktの突風を伴う
視程: 8000m
高度1300ftの千切れ雲あり
高度1800ftの雲はほとんどない, 積乱雲.
にわか雨

TAF: LPMA 040500Z 0406/0506 21015KT 9999 SCT015 TEMPO 0406/0506 22020G30KT 8000 SHRA BKN013 FEW018CB

4,000以上の空港の気象観測と天気予報(METAR報とTAF報)

利用可能な観測所は地図上に黄色い丸と赤い丸で示す。

丸の上にカーソルを重ねると観測所名を参照できる。

次にクリックすると気象観測と天気予報を参照できる。

マップの切り替え:黒色「×」印の緑ボタンをクリックして拡大、「-」印の緑ボタンをクリックして縮小、緑色の三角印をクリックして隣りの地図に切り替え


METAR-TAF: